createdAt,value
2018-02-19T00:46:14.746Z,2.70
2018-02-19T00:49:07.761Z,2.70
2018-02-19T00:51:45.519Z,2.30
2018-02-19T00:54:33.166Z,2.80
2018-02-19T01:00:01.253Z,3.10
2018-02-19T01:02:46.932Z,2.80
2018-02-19T01:05:40.328Z,2.90
2018-02-19T01:08:16.691Z,2.80
2018-02-19T01:10:53.839Z,2.80
2018-02-19T01:13:32.955Z,2.70
2018-02-19T01:16:18.629Z,2.60
2018-02-19T01:18:59.275Z,2.70
2018-02-19T01:24:51.147Z,2.70
2018-02-19T01:27:37.099Z,2.70
2018-02-19T01:30:16.830Z,2.80
2018-02-19T01:32:59.738Z,3.00
2018-02-19T01:35:48.558Z,2.80
2018-02-19T01:39:32.118Z,2.70
2018-02-19T01:42:10.221Z,2.70
2018-02-19T01:44:52.007Z,2.70
2018-02-19T01:47:37.435Z,2.70
2018-02-19T01:50:29.505Z,2.70
2018-02-19T01:53:15.546Z,2.70
2018-02-19T01:56:00.815Z,2.70
2018-02-19T01:58:38.344Z,2.50
2018-02-19T02:01:18.439Z,2.60
2018-02-19T02:03:57.212Z,2.60
2018-02-19T02:06:35.351Z,2.60
2018-02-19T02:09:13.484Z,2.60
2018-02-19T02:11:54.317Z,2.60
2018-02-19T02:14:27.963Z,2.70
2018-02-19T02:17:12.458Z,2.70
2018-02-19T02:19:55.977Z,2.70
2018-02-19T02:22:34.754Z,2.60
2018-02-19T02:25:14.576Z,2.60
2018-02-19T02:27:54.734Z,2.60
2018-02-19T02:30:37.894Z,2.50
2018-02-19T02:33:23.554Z,2.50
2018-02-19T02:36:21.507Z,2.50
2018-02-19T02:39:07.633Z,2.50
2018-02-19T02:41:46.746Z,2.60
2018-02-19T02:44:28.923Z,2.70
2018-02-19T02:47:05.368Z,2.70
2018-02-19T02:49:42.258Z,2.70
2018-02-19T02:52:25.433Z,2.50
2018-02-19T02:55:09.663Z,2.70
2018-02-19T02:57:44.965Z,2.60
2018-02-19T03:00:51.933Z,2.60
2018-02-19T03:03:31.869Z,2.60
2018-02-19T03:06:09.551Z,2.50
2018-02-19T03:08:50.485Z,2.60
2018-02-19T03:11:23.981Z,2.60
2018-02-19T03:14:02.329Z,2.60
2018-02-19T03:16:46.469Z,2.60
2018-02-19T03:19:23.919Z,2.70
2018-02-19T03:22:16.118Z,2.70
2018-02-19T03:24:52.105Z,2.80
2018-02-19T03:27:36.110Z,2.70
2018-02-19T03:30:28.406Z,2.90
2018-02-19T03:33:06.687Z,2.80
2018-02-19T03:35:52.988Z,2.70
2018-02-19T03:38:38.749Z,2.70
2018-02-19T03:41:24.310Z,2.60
2018-02-19T03:46:53.624Z,2.70
2018-02-19T03:49:27.478Z,2.70
2018-02-19T03:52:21.090Z,2.70
2018-02-19T03:57:42.084Z,2.60
2018-02-19T04:00:29.476Z,2.80
2018-02-19T04:03:12.908Z,2.60
2018-02-19T04:06:04.089Z,2.60
2018-02-19T04:08:45.908Z,2.50
2018-02-19T04:11:33.273Z,2.40
2018-02-19T04:14:16.299Z,2.50
2018-02-19T04:16:52.274Z,2.70
2018-02-19T04:19:33.452Z,2.60
2018-02-19T04:22:07.624Z,2.60
2018-02-19T04:24:53.711Z,2.50
2018-02-19T04:27:49.981Z,2.40
2018-02-19T04:30:44.335Z,2.40
2018-02-19T04:33:26.988Z,2.50
2018-02-19T04:36:12.824Z,2.40
2018-02-19T04:38:51.976Z,2.50
2018-02-19T04:41:27.514Z,2.50
2018-02-19T04:44:22.582Z,2.40
2018-02-19T04:47:01.965Z,2.40
2018-02-19T04:49:39.290Z,2.40
2018-02-19T04:52:14.144Z,2.30
2018-02-19T04:54:50.985Z,2.50
2018-02-19T04:57:30.615Z,2.50
2018-02-19T05:00:15.585Z,2.40
2018-02-19T05:02:50.686Z,2.40
2018-02-19T05:05:43.448Z,2.30
2018-02-19T05:08:28.287Z,2.40
2018-02-19T05:11:08.747Z,2.40
2018-02-19T05:14:02.400Z,2.50
2018-02-19T05:16:59.243Z,2.50
2018-02-19T05:19:37.878Z,2.20
2018-02-19T05:22:27.372Z,2.10
2018-02-19T05:25:12.624Z,2.00
2018-02-19T05:52:10.533Z,1.90
2018-02-19T05:54:54.194Z,1.70
2018-02-19T06:12:00.186Z,1.70
2018-02-19T06:20:59.484Z,2.20
2018-02-19T06:23:46.641Z,1.90
2018-02-19T06:41:58.581Z,1.90
2018-02-19T06:44:47.752Z,1.80
2018-02-19T06:47:30.626Z,1.80
2018-02-19T06:53:40.257Z,1.80
2018-02-19T06:56:30.753Z,1.80
2018-02-19T06:59:29.606Z,1.80
2018-02-19T07:02:10.933Z,1.90
2018-02-19T07:05:15.614Z,1.90
2018-02-19T07:07:52.332Z,2.00
2018-02-19T07:10:47.995Z,2.30
2018-02-19T07:13:30.736Z,2.00
2018-02-19T07:16:18.830Z,2.00
2018-02-19T07:19:00.375Z,2.00
2018-02-19T07:21:41.731Z,2.00
2018-02-19T07:24:36.514Z,2.00
2018-02-19T07:27:22.878Z,2.10
2018-02-19T07:32:12.277Z,2.00
2018-02-19T07:35:02.167Z,2.00
2018-02-19T07:40:36.701Z,2.00
2018-02-19T07:43:33.939Z,2.00
2018-02-19T07:46:20.940Z,2.10
2018-02-19T07:49:07.827Z,1.70
2018-02-19T07:51:47.864Z,2.10
2018-02-19T07:54:34.099Z,2.10
2018-02-19T08:01:07.964Z,2.30
2018-02-19T08:06:39.736Z,2.40
2018-02-19T08:09:26.022Z,2.40
2018-02-19T08:12:13.964Z,2.40
2018-02-19T08:15:18.893Z,2.70
2018-02-19T08:18:03.040Z,2.50
2018-02-19T08:20:49.052Z,2.40
2018-02-19T08:34:03.094Z,2.40
2018-02-19T08:38:50.573Z,2.70
2018-02-19T08:41:49.325Z,2.80
2018-02-19T08:44:28.486Z,2.90
2018-02-19T08:47:20.462Z,2.80
2018-02-19T08:50:04.416Z,2.90
2018-02-19T08:53:15.576Z,2.90
2018-02-19T08:56:00.838Z,3.00
2018-02-19T08:58:39.535Z,3.10
2018-02-19T09:01:18.732Z,3.10
2018-02-19T09:04:00.336Z,3.30
2018-02-19T09:09:36.699Z,3.70
2018-02-19T09:12:26.775Z,4.30
2018-02-19T09:15:40.665Z,4.30
2018-02-19T09:18:20.332Z,4.80
2018-02-19T09:21:09.393Z,4.60
2018-02-19T09:23:58.000Z,4.50
2018-02-19T09:26:51.608Z,4.20
2018-02-19T09:42:15.102Z,4.10
2018-02-19T09:45:07.583Z,4.10
2018-02-19T09:47:48.453Z,4.10
2018-02-19T09:50:35.740Z,4.20
2018-02-19T09:53:16.245Z,4.20
2018-02-19T10:24:25.636Z,4.30
2018-02-19T10:37:08.736Z,4.30
2018-02-19T10:39:53.376Z,4.40
2018-02-19T10:45:47.769Z,4.90
2018-02-19T10:48:33.893Z,4.80
2018-02-19T10:51:34.911Z,5.20
2018-02-19T10:54:14.951Z,5.20
2018-02-19T10:57:08.716Z,5.40
2018-02-19T10:59:52.593Z,5.70
2018-02-19T11:02:34.021Z,5.80
2018-02-19T11:05:20.887Z,5.70
2018-02-19T11:08:01.169Z,5.70
2018-02-19T11:10:48.632Z,6.00
2018-02-19T11:13:37.663Z,6.00
2018-02-19T11:16:30.330Z,5.80
2018-02-19T11:19:22.564Z,5.80
2018-02-19T11:22:10.210Z,5.80
2018-02-19T11:25:05.215Z,5.90
2018-02-19T11:27:48.969Z,5.60
2018-02-19T11:30:43.504Z,5.60
2018-02-19T11:40:40.239Z,5.80
2018-02-19T11:43:32.566Z,5.70
2018-02-19T11:46:14.953Z,5.70
2018-02-19T11:55:27.770Z,5.90
2018-02-19T12:10:59.351Z,5.80
2018-02-19T12:20:02.841Z,7.00
2018-02-19T12:32:13.009Z,6.70
2018-02-19T12:45:46.913Z,6.50
2018-02-19T12:57:22.448Z,7.00
2018-02-19T13:05:59.581Z,7.20
2018-02-19T13:09:00.219Z,6.90
2018-02-19T13:12:18.923Z,6.80
2018-02-19T13:15:26.882Z,6.40
2018-02-19T13:21:06.339Z,5.90
2018-02-19T15:05:33.337Z,6.20
